If you wish to contribute or participate in the discussions about articles you are invited to join SKYbrary as a registered user

 Actions

Belgrade Nikola Tesla Airport

From SKYbrary Wiki

LYBE
Airport
ICAO: LYBE – IATA: BEG
Summary
Name Belgrade Nikola Tesla Airport
Region Europe
Territory Serbia and Montenegro
Location Surčin, Belgrade
Serving Belgrade
Elevation 102.413 m <br />336 ft <br />336 ft102.413 m <br />
Coordinates 44° 49' 9.98" N, 20° 18' 24.98" E
Runways
Designator Length Width Surface ROPS
12/30 3400 m11,154.856 ft <br /> 45 m147.638 ft <br /> ASP yes/yes


METAR
Observation LYBE 211030Z 24006KT 210V280 CAVOK 21/07 Q1015 NOSIG
Station Beograd / Surcin
Date/Time 21 October 2021 10:30:00
Wind direction 240°
Wind speed 06 kts
Lowest cloud amount clouds and visibility OK
Temperature 21°C
Dew point 7°C
Humidity 40%
QNH 1015 hPa
Weather condition n/a

International airport serving capital of Serbia. The airport is situated 12 km6.479 nm <br />12,000 m <br />39,370.079 ft <br /> west of central Belgrade, in the municipality of Surčin.

Climatology

Humid continental climate (Köppen climate classification Dfa)

Maps

Terrain

Loading map...

Airport Layout

Loading map...


Accidents & Serious Incidents at or in vicinity of LYBE

None on SKYbrary